Time;durP1;ratioP1;P1;durP2;ratioP2;P2;SDS_P1;SDS_P2;PMS_P1;PMS_P2;Temp;Humidity;BMP_temperature;BMP_pressure;BME280_temperature;BME280_humidity;BME280_pressure;Samples;Min_cycle;Max_cycle;Signal;HPM_P1;HPM_P2
2023/02/09 00:00:20;;;;;;;;;37.00;32.50;;;;;5.51;44.61;102400.97;6271632;22;45591;-75
2023/02/09 00:02:45;;;;;;;;;29.50;26.25;;;;;5.34;44.74;102379.72;6272061;22;45868;-77
2023/02/09 00:05:11;;;;;;;;;30.75;22.50;;;;;5.47;44.65;102410.59;6272360;22;45557;-75
2023/02/09 00:07:37;;;;;;;;;35.50;29.75;;;;;5.47;45.22;102404.53;6272435;22;46254;-74
2023/02/09 00:10:04;;;;;;;;;36.50;29.50;;;;;5.29;45.10;102382.38;6272851;22;45974;-80
2023/02/09 00:18:35;;;;;;;;;46.00;37.50;;;;;5.35;45.51;102395.25;6272087;22;46066;-76
2023/02/09 00:21:05;;;;;;;;;36.00;31.75;;;;;5.33;45.52;102388.41;6271791;22;45527;-77
2023/02/09 00:23:33;;;;;;;;;43.00;36.50;;;;;5.26;46.08;102386.81;6271010;22;45823;-76
2023/02/09 00:26:00;;;;;;;;;48.75;39.75;;;;;5.23;46.00;102390.34;6270765;22;47473;-76
2023/02/09 00:28:26;;;;;;;;;49.25;40.75;;;;;5.23;45.99;102385.13;6271863;22;46091;-75
2023/02/09 00:30:51;;;;;;;;;34.50;32.00;;;;;5.24;46.11;102385.97;6244577;22;45626;-76
2023/02/09 00:33:17;;;;;;;;;43.00;41.00;;;;;5.22;46.29;102386.03;6271716;22;45694;-79
2023/02/09 00:35:42;;;;;;;;;51.50;43.50;;;;;5.18;46.28;102384.38;6273404;22;45656;-78
2023/02/09 00:38:09;;;;;;;;;55.00;43.25;;;;;5.14;46.75;102377.50;6274852;22;45962;-76
2023/02/09 00:40:36;;;;;;;;;48.50;42.75;;;;;5.16;46.63;102383.53;6274375;22;45511;-77
2023/02/09 00:43:02;;;;;;;;;46.75;40.25;;;;;5.14;46.57;102384.44;6220933;22;45582;-79
2023/02/09 00:48:49;;;;;;;;;53.00;44.25;;;;;5.03;47.22;102372.53;6272434;22;46078;-78
2023/02/09 00:51:14;;;;;;;;;49.75;38.75;;;;;5.06;47.19;102380.28;6272327;22;45681;-76
2023/02/09 00:53:40;;;;;;;;;50.50;40.50;;;;;4.99;46.86;102370.03;6276085;22;45498;-75
2023/02/09 00:56:05;;;;;;;;;58.75;43.25;;;;;5.03;47.15;102380.31;6275395;22;47144;-80
2023/02/09 00:58:30;;;;;;;;;44.25;40.25;;;;;5.03;46.81;102385.50;6273253;22;47503;-78
2023/02/09 01:04:17;;;;;;;;;41.50;33.75;;;;;4.96;47.38;102380.50;6273468;22;45507;-76
2023/02/09 01:06:42;;;;;;;;;45.75;38.25;;;;;4.95;47.92;102383.97;6273176;22;45585;-76
2023/02/09 01:09:08;;;;;;;;;17.00;8.50;;;;;4.85;47.65;102375.50;6271828;22;46157;-77
2023/02/09 01:11:33;;;;;;;;;46.25;37.00;;;;;4.89;47.61;102384.94;6271690;22;45437;-76
2023/02/09 01:13:59;;;;;;;;;44.25;35.50;;;;;4.81;47.68;102375.56;6272193;22;45598;-77
2023/02/09 01:16:27;;;;;;;;;42.00;33.75;;;;;4.86;47.93;102379.78;6272081;22;45674;-79
2023/02/09 01:18:53;;;;;;;;;38.50;35.00;;;;;4.79;47.52;102373.00;6272252;22;46020;-79
2023/02/09 01:21:20;;;;;;;;;38.50;35.50;;;;;4.84;47.84;102391.09;6271843;22;45806;-78
2023/02/09 01:23:46;;;;;;;;;38.00;34.00;;;;;4.82;48.14;102390.25;6272315;22;45753;-80
2023/02/09 01:26:14;;;;;;;;;37.00;31.00;;;;;4.80;47.66;102399.84;6272337;22;47596;-76
2023/02/09 01:28:39;;;;;;;;;33.25;30.75;;;;;4.76;47.74;102396.41;6274466;22;46337;-76
2023/02/09 01:34:26;;;;;;;;;30.75;29.50;;;;;4.61;47.75;102376.78;6273439;22;45419;-78
2023/02/09 01:36:53;;;;;;;;;31.25;29.50;;;;;4.63;47.75;102384.56;6273035;22;45653;-77
2023/02/09 01:39:18;;;;;;;;;30.00;27.50;;;;;4.69;48.28;102405.22;6273373;22;47007;-77
2023/02/09 01:41:44;;;;;;;;;29.00;26.00;;;;;4.61;47.81;102387.19;6272873;22;45530;-75
2023/02/09 01:50:58;;;;;;;;;29.00;27.50;;;;;4.67;48.20;102399.19;6272273;22;46060;-77
2023/02/09 01:53:25;;;;;;;;;35.00;31.25;;;;;4.65;47.87;102395.75;6271685;22;45852;-76
2023/02/09 01:55:56;;;;;;;;;15.25;11.00;;;;;4.63;48.16;102392.34;6272267;22;45496;-76
2023/02/09 01:58:25;;;;;;;;;39.50;30.00;;;;;4.64;48.41;102399.25;6272373;22;45534;-78
2023/02/09 02:00:51;;;;;;;;;29.75;23.25;;;;;4.56;48.11;102382.94;6272533;22;46198;-79
2023/02/09 02:03:21;;;;;;;;;36.25;28.25;;;;;4.63;48.25;102393.22;6271818;22;46048;-80
2023/02/09 02:05:54;;;;;;;;;32.25;29.50;;;;;4.64;48.30;102394.91;6271701;22;45517;-77
2023/02/09 02:08:19;;;;;;;;;34.00;30.50;;;;;4.65;47.93;102390.56;6271915;22;46521;-78
2023/02/09 02:10:45;;;;;;;;;38.00;29.67;;;;;4.67;48.03;102395.72;6272238;22;46035;-76
2023/02/09 02:13:10;;;;;;;;;32.00;26.75;;;;;4.64;48.04;102394.06;6271768;22;45590;-74
2023/02/09 02:15:59;;;;;;;;;34.25;26.50;;;;;4.68;48.04;102395.72;6270889;22;45600;-77
2023/02/09 02:18:56;;;;;;;;;36.50;33.25;;;;;4.68;48.61;102403.50;6145379;23;46477;-75
2023/02/09 02:21:42;;;;;;;;;36.00;32.50;;;;;4.68;48.25;102397.47;6146025;23;46405;-77
2023/02/09 02:24:28;;;;;;;;;31.75;29.00;;;;;4.67;48.94;102403.53;6146247;23;45675;-77
2023/02/09 02:27:00;;;;;;;;;33.75;29.75;;;;;4.61;48.99;102415.72;6169515;23;45960;-77
2023/02/09 02:33:09;;;;;;;;;32.25;30.75;;;;;4.53;49.31;102407.22;6147108;23;45771;-76
2023/02/09 02:35:42;;;;;;;;;33.25;26.00;;;;;4.52;49.17;102407.25;6148610;23;45818;-78
2023/02/09 02:38:21;;;;;;;;;36.75;31.75;;;;;4.48;49.11;102401.25;6149494;23;45514;-80
2023/02/09 02:41:07;;;;;;;;;36.00;29.25;;;;;4.47;49.27;102401.28;6149232;23;46670;-79
2023/02/09 02:43:35;;;;;;;;;31.50;27.25;;;;;4.45;49.20;102400.44;6149816;23;45473;-80
2023/02/09 02:49:32;;;;;;;;;25.00;24.25;;;;;4.35;49.66;102393.69;6151280;23;45662;-82
2023/02/09 02:52:02;;;;;;;;;32.75;30.00;;;;;4.25;49.40;102392.16;6150146;23;47853;-80
2023/02/09 02:54:39;;;;;;;;;29.50;24.25;;;;;4.26;49.24;102393.84;6155897;22;46204;-79
2023/02/09 02:57:11;;;;;;;;;32.25;27.25;;;;;4.21;49.46;102393.94;6214219;22;45317;-81
2023/02/09 02:59:42;;;;;;;;;24.25;21.00;;;;;4.19;49.63;102401.75;6213358;22;45570;-83
2023/02/09 03:05:30;;;;;;;;;34.25;25.75;;;;;4.06;50.05;102395.00;6271435;22;45773;-80
2023/02/09 03:07:56;;;;;;;;;28.75;27.25;;;;;4.03;49.95;102400.25;6271714;22;45526;-79
2023/02/09 03:10:35;;;;;;;;;32.50;29.25;;;;;3.98;50.30;102399.47;6272237;22;45605;-81
2023/02/09 03:13:17;;;;;;;;;30.00;26.00;;;;;3.97;49.80;102395.16;6272411;22;45583;-80
2023/02/09 03:16:19;;;;;;;;;43.25;34.75;;;;;3.95;50.33;102394.31;6270650;22;47738;-80
2023/02/09 03:19:11;;;;;;;;;45.00;36.25;;;;;3.93;50.75;102398.69;6298685;22;45528;-79
2023/02/09 03:21:39;;;;;;;;;47.25;43.50;;;;;3.91;50.94;102394.41;6275326;22;45420;-81
2023/02/09 03:24:10;;;;;;;;;36.50;33.25;;;;;3.86;50.52;102391.00;6274148;22;46608;-78
2023/02/09 03:26:47;;;;;;;;;44.50;37.00;;;;;3.68;51.34;102367.06;6271543;22;47182;-80
2023/02/09 03:29:15;;;;;;;;;51.25;38.75;;;;;3.67;51.18;102372.28;6272551;22;45699;-82
2023/02/09 03:31:41;;;;;;;;;41.25;35.25;;;;;3.64;51.38;102393.06;6271149;22;45464;-79
2023/02/09 03:34:08;;;;;;;;;44.50;41.00;;;;;3.67;51.37;102401.63;6271913;22;45499;-78
2023/02/09 03:36:38;;;;;;;;;46.00;38.50;;;;;3.64;51.50;102396.50;6272469;22;45651;-79
2023/02/09 03:39:04;;;;;;;;;48.75;39.75;;;;;3.52;51.28;102383.72;6272080;22;45600;-82
2023/02/09 03:41:29;;;;;;;;;53.00;44.25;;;;;3.56;52.01;102389.72;6272317;22;45586;-80
2023/02/09 03:46:39;;;;;;;;;47.00;41.50;;;;;3.45;51.95;102402.81;6273437;22;45919;-77
2023/02/09 03:49:05;;;;;;;;;49.50;43.50;;;;;3.40;52.09;102395.97;6272467;22;45742;-80
2023/02/09 03:51:31;;;;;;;;;57.00;46.00;;;;;3.34;52.22;102376.19;6272752;22;45472;-79
2023/02/09 03:53:56;;;;;;;;;47.25;43.25;;;;;3.34;51.99;102382.22;6271507;22;46893;-77
2023/02/09 03:56:23;;;;;;;;;43.75;39.00;;;;;3.33;52.14;102383.09;6245853;22;46242;-79
2023/02/09 03:58:49;;;;;;;;;50.25;44.75;;;;;3.33;51.91;102384.84;6273385;22;45689;-81
2023/02/09 04:01:14;;;;;;;;;53.25;45.50;;;;;3.38;51.88;102396.84;6273345;22;45551;-76
2023/02/09 04:03:40;;;;;;;;;63.50;48.75;;;;;3.37;52.31;102383.91;6272447;22;47484;-82
2023/02/09 04:06:05;;;;;;;;;56.00;45.00;;;;;3.34;52.10;102387.41;6271879;22;46107;-81
2023/02/09 04:08:32;;;;;;;;;52.75;43.75;;;;;3.36;52.47;102401.19;6272635;22;45575;-82
2023/02/09 04:10:58;;;;;;;;;54.00;48.00;;;;;3.32;52.30;102404.69;6272497;22;45620;-80
2023/02/09 04:13:24;;;;;;;;;54.75;45.25;;;;;3.27;52.30;102409.06;6272598;22;45507;-80
2023/02/09 04:15:51;;;;;;;;;62.25;49.00;;;;;3.25;52.54;102417.72;6271705;22;46167;-82
2023/02/09 04:21:38;;;;;;;;;56.50;48.75;;;;;3.08;52.60;102398.97;6272134;22;45725;-81
2023/02/09 04:24:05;;;;;;;;;61.00;45.00;;;;;3.06;52.45;102396.38;6272157;22;46483;-79
2023/02/09 04:26:31;;;;;;;;;61.75;47.25;;;;;3.04;52.22;102392.06;6270911;22;46194;-79
2023/02/09 04:28:56;;;;;;;;;66.50;52.75;;;;;3.09;52.54;102392.88;6271423;22;45524;-78
2023/02/09 04:31:22;;;;;;;;;62.50;49.00;;;;;3.13;52.18;102387.66;6271865;22;45492;-78
2023/02/09 04:37:08;;;;;;;;;65.75;54.00;;;;;3.18;52.20;102391.06;6271546;22;45543;-77
2023/02/09 04:39:34;;;;;;;;;65.00;49.50;;;;;3.21;52.11;102393.59;6245355;22;45614;-80
2023/02/09 04:41:59;;;;;;;;;61.50;49.50;;;;;3.24;52.15;102390.97;6275222;22;45481;-77
2023/02/09 04:44:25;;;;;;;;;63.50;50.50;;;;;3.20;52.06;102378.06;6274371;22;46650;-80
2023/02/09 04:46:50;;;;;;;;;51.25;45.75;;;;;3.23;51.89;102384.09;6275677;22;45656;-79
2023/02/09 04:49:15;;;;;;;;;69.00;54.00;;;;;3.32;51.98;102375.34;6275342;22;45528;-78
2023/02/09 04:51:41;;;;;;;;;66.25;50.50;;;;;3.29;52.00;102372.81;6272544;22;45525;-81
2023/02/09 04:54:06;;;;;;;;;63.50;48.25;;;;;3.32;52.24;102370.16;6271578;22;46258;-77
2023/02/09 04:56:31;;;;;;;;;63.75;49.50;;;;;3.28;52.14;102348.63;6244623;22;45796;-82
2023/02/09 05:01:40;;;;;;;;;53.25;44.50;;;;;3.37;52.04;102352.81;6273610;22;45544;-79
2023/02/09 05:07:28;;;;;;;;;58.50;47.50;;;;;3.45;52.33;102357.91;6275487;22;45704;-79
2023/02/09 05:09:53;;;;;;;;;54.50;44.50;;;;;3.45;52.29;102369.16;6276195;22;45954;-79
2023/02/09 05:12:18;;;;;;;;;48.50;43.75;;;;;3.44;52.29;102382.97;6277935;22;45548;-81
2023/02/09 05:14:44;;;;;;;;;48.25;37.00;;;;;3.46;51.97;102386.38;6277242;22;45614;-79
2023/02/09 05:17:09;;;;;;;;;53.75;41.00;;;;;3.45;52.61;102404.56;6275567;22;46195;-81
2023/02/09 05:22:56;;;;;;;;;39.00;33.00;;;;;3.37;52.98;102410.66;6275661;22;45615;-80
2023/02/09 05:25:21;;;;;;;;;47.75;35.50;;;;;3.33;52.91;102424.53;6277275;22;47449;-78
2023/02/09 05:27:47;;;;;;;;;34.25;31.50;;;;;3.27;53.31;102427.19;6278223;22;46270;-78
2023/02/09 05:30:12;;;;;;;;;41.00;37.50;;;;;3.24;53.27;102437.59;6276011;22;45516;-80
2023/02/09 05:32:38;;;;;;;;;41.75;37.25;;;;;3.09;53.03;102423.94;6277325;22;45713;-82
2023/02/09 05:35:05;;;;;;;;;48.00;36.00;;;;;3.11;53.32;102436.03;6278826;22;46469;-79
2023/02/09 05:37:30;;;;;;;;;37.75;33.00;;;;;3.11;53.26;102437.75;6279156;22;46446;-82
2023/02/09 05:39:56;;;;;;;;;42.50;36.75;;;;;3.06;53.26;102424.84;6276555;22;45515;-82
2023/02/09 05:42:22;;;;;;;;;37.00;31.25;;;;;3.05;53.18;102412.78;6273673;22;45688;-80
2023/02/09 05:44:49;;;;;;;;;39.50;37.00;;;;;3.09;53.10;102423.94;6271960;22;46437;-79
2023/02/09 05:47:17;;;;;;;;;49.75;36.75;;;;;3.11;52.90;102420.47;6272485;22;46121;-75
2023/02/09 05:53:04;;;;;;;;;42.00;33.50;;;;;3.15;52.96;102421.28;6272156;22;45520;-78
2023/02/09 05:55:29;;;;;;;;;47.25;39.25;;;;;3.17;53.01;102424.75;6243857;22;47668;-79
2023/02/09 05:57:55;;;;;;;;;41.25;35.75;;;;;3.20;53.00;102433.31;6270381;22;45937;-79
2023/02/09 06:00:22;;;;;;;;;40.25;37.75;;;;;3.22;52.85;102426.41;6271196;22;45416;-82
2023/02/09 06:02:47;;;;;;;;;36.75;31.50;;;;;3.24;52.79;102426.41;6272285;22;45467;-77
2023/02/09 06:05:13;;;;;;;;;46.50;36.25;;;;;3.25;52.69;102430.66;6271065;22;46216;-79
2023/02/09 06:07:38;;;;;;;;;43.75;34.50;;;;;3.25;52.80;102428.94;6271435;22;46766;-79
2023/02/09 06:10:04;;;;;;;;;43.33;37.00;;;;;3.27;52.66;102424.63;6271334;22;45599;-76
2023/02/09 06:12:29;;;;;;;;;28.00;22.00;;;;;3.28;52.88;102436.69;6271551;22;45473;-78
2023/02/09 06:14:54;;;;;;;;;42.50;39.00;;;;;3.26;52.87;102425.47;6271564;22;46179;-78
2023/02/09 06:17:20;;;;;;;;;46.25;37.25;;;;;3.27;52.82;102427.19;6271819;22;45865;-76
2023/02/09 06:23:07;;;;;;;;;40.25;32.25;;;;;3.32;52.78;102438.38;6272513;22;45440;-75
2023/02/09 06:25:32;;;;;;;;;34.25;26.50;;;;;3.32;52.89;102427.16;6244575;22;46243;-80
2023/02/09 06:27:57;;;;;;;;;41.50;36.00;;;;;3.31;52.78;102438.38;6268986;22;46773;-80
2023/02/09 06:30:23;;;;;;;;;47.25;40.25;;;;;3.26;52.83;102435.84;6270034;22;45583;-78
2023/02/09 06:32:48;;;;;;;;;46.00;41.33;;;;;3.28;52.99;102441.00;6273288;22;45524;-76
2023/02/09 06:38:37;;;;;;;;;48.75;42.25;;;;;3.34;53.03;102448.72;6274840;22;46088;-77
2023/02/09 06:41:03;;;;;;;;;49.50;40.50;;;;;3.28;52.75;102447.06;6274465;22;45548;-78
2023/02/09 06:43:28;;;;;;;;;43.25;40.50;;;;;3.32;52.74;102469.44;6274705;22;45733;-77
2023/02/09 06:45:53;;;;;;;;;46.75;39.00;;;;;3.33;53.13;102459.94;6270044;22;46212;-79
2023/02/09 06:48:19;;;;;;;;;53.75;44.25;;;;;3.33;52.90;102468.56;6271975;22;45907;-77
2023/02/09 06:54:07;;;;;;;;;36.75;32.00;;;;;3.33;52.91;102462.53;6280045;22;45630;-81
2023/02/09 06:56:32;;;;;;;;;57.50;47.25;;;;;3.31;52.84;102469.44;6277169;22;47684;-78
2023/02/09 06:58:58;;;;;;;;;64.75;46.25;;;;;3.33;52.60;102468.56;6277852;22;46218;-79
2023/02/09 07:01:23;;;;;;;;;64.50;47.75;;;;;3.37;52.71;102470.25;6275606;22;45629;-79
2023/02/09 07:03:48;;;;;;;;;63.50;48.75;;;;;3.39;52.85;102475.41;6277125;22;45615;-85
2023/02/09 07:06:17;;;;;;;;;53.00;47.00;;;;;3.33;52.79;102473.75;6274496;22;46172;-80
2023/02/09 07:08:43;;;;;;;;;57.00;47.75;;;;;3.42;52.84;102483.16;6277013;22;45879;-80
2023/02/09 07:11:14;;;;;;;;;59.25;47.50;;;;;3.43;52.73;102477.09;6275101;22;46195;-79
2023/02/09 07:13:40;;;;;;;;;63.75;49.25;;;;;3.45;52.48;102490.03;6301740;22;45616;-79
2023/02/09 07:16:07;;;;;;;;;53.25;44.25;;;;;3.45;52.72;102475.34;6276363;22;47111;-77
2023/02/09 07:18:33;;;;;;;;;49.00;42.75;;;;;3.46;52.62;102474.44;6275377;22;45548;-78
2023/02/09 07:24:20;;;;;;;;;50.25;44.00;;;;;3.46;52.41;102469.28;6277338;22;45615;-78
2023/02/09 07:26:46;;;;;;;;;46.25;40.25;;;;;3.48;52.50;102479.63;6279834;22;45828;-76
2023/02/09 07:29:11;;;;;;;;;51.25;43.25;;;;;3.47;52.24;102483.94;6275965;22;47245;-74
2023/02/09 07:31:37;;;;;;;;;42.50;38.25;;;;;3.47;52.30;102476.19;6275235;22;45929;-76
2023/02/09 07:34:02;;;;;;;;;55.25;47.25;;;;;3.48;52.19;102492.59;6272537;22;45770;-73
2023/02/09 07:36:28;;;;;;;;;52.75;40.75;;;;;3.48;52.13;102492.59;6273111;22;46305;-76
2023/02/09 07:38:54;;;;;;;;;59.00;44.00;;;;;3.42;52.26;102477.97;6272433;22;46463;-75
2023/02/09 07:41:24;;;;;;;;;45.00;41.50;;;;;3.49;51.96;102484.81;6271885;22;45786;-76
2023/02/09 07:43:49;;;;;;;;;51.50;44.00;;;;;3.48;52.25;102482.22;6272365;22;45890;-78
2023/02/09 07:46:19;;;;;;;;;56.75;41.00;;;;;3.50;52.16;102499.47;6272384;22;45573;-73
2023/02/09 07:48:46;;;;;;;;;53.25;46.75;;;;;3.50;52.04;102502.06;6272385;22;46001;-73
2023/02/09 07:54:48;;;;;;;;;59.25;48.50;;;;;3.47;51.84;102516.78;6272240;22;45735;-76
2023/02/09 07:57:13;;;;;;;;;52.50;45.50;;;;;3.47;52.03;102520.22;6272266;22;46096;-76
2023/02/09 07:59:39;;;;;;;;;55.00;44.67;;;;;3.49;52.19;102527.97;6272190;22;45956;-75
2023/02/09 08:02:12;;;;;;;;;66.00;51.25;;;;;3.55;51.91;102530.50;6273347;22;45625;-76
2023/02/09 08:04:37;;;;;;;;;54.25;46.75;;;;;3.57;51.75;102536.50;6272703;22;45671;-78
2023/02/09 08:07:03;;;;;;;;;56.00;47.50;;;;;3.54;51.89;102529.66;6273819;22;45599;-75
2023/02/09 08:09:28;;;;;;;;;62.00;48.67;;;;;3.60;51.83;102542.53;6273616;22;46496;-77
2023/02/09 08:12:00;;;;;;;;;55.50;46.50;;;;;3.64;51.66;102552.00;6272365;22;45620;-73
2023/02/09 08:14:33;;;;;;;;;58.75;46.50;;;;;3.65;51.66;102550.25;6272110;22;45783;-76
2023/02/09 08:17:20;;;;;;;;;61.25;46.50;;;;;3.68;51.70;102555.41;6272352;22;45449;-72
2023/02/09 08:19:49;;;;;;;;;59.00;49.50;;;;;3.69;51.61;102567.47;6270946;22;46861;-75
2023/02/09 08:22:15;;;;;;;;;62.00;47.00;;;;;3.72;51.62;102570.06;6271275;22;45768;-76
2023/02/09 08:24:40;;;;;;;;;62.00;49.50;;;;;3.75;51.59;102572.59;6271950;22;45519;-74
2023/02/09 08:27:06;;;;;;;;;54.25;47.25;;;;;3.70;51.50;102564.03;6291545;22;47644;-71
2023/02/09 08:29:31;;;;;;;;;55.00;45.75;;;;;3.80;51.63;102579.44;6273022;22;46173;-75
2023/02/09 08:31:57;;;;;;;;;64.75;49.50;;;;;3.75;51.30;102564.81;6271906;22;45564;-74
2023/02/09 08:34:22;;;;;;;;;55.50;46.75;;;;;3.82;51.66;102578.59;6272449;22;45603;-76
2023/02/09 08:40:10;;;;;;;;;57.50;48.25;;;;;3.87;51.70;102580.25;6271891;22;45986;-76
2023/02/09 08:42:35;;;;;;;;;62.00;47.25;;;;;3.96;51.27;102597.41;6272235;22;45521;-77
2023/02/09 08:45:00;;;;;;;;;50.00;44.00;;;;;3.98;51.43;102596.53;6272828;22;45411;-76
2023/02/09 08:47:26;;;;;;;;;48.75;37.75;;;;;4.01;51.38;102603.41;6272125;22;47029;-79
2023/02/09 08:49:51;;;;;;;;;54.75;46.50;;;;;4.03;51.16;102591.28;6271261;22;46778;-79
2023/02/09 08:52:17;;;;;;;;;56.50;46.00;;;;;4.09;51.01;102593.81;6272548;22;45532;-77
2023/02/09 08:54:43;;;;;;;;;49.25;44.25;;;;;4.12;50.93;102605.00;6273368;22;45477;-77
2023/02/09 08:57:08;;;;;;;;;52.25;44.25;;;;;4.14;51.00;102598.06;6273310;22;45504;-77
2023/02/09 08:59:33;;;;;;;;;50.75;42.00;;;;;4.18;51.13;102606.66;6272286;22;46219;-74
2023/02/09 09:01:59;;;;;;;;;38.50;31.75;;;;;4.21;51.23;102598.84;6274119;22;45434;-75
2023/02/09 09:04:24;;;;;;;;;54.00;46.00;;;;;4.21;50.82;102602.28;6273223;22;45436;-79
2023/02/09 09:10:12;;;;;;;;;45.50;39.00;;;;;4.28;50.51;102625.56;6271549;22;45789;-75
2023/02/09 09:12:39;;;;;;;;;49.25;39.00;;;;;4.28;50.77;102618.63;6271422;22;45732;-76
2023/02/09 09:15:05;;;;;;;;;37.50;29.50;;;;;4.32;50.46;102622.91;6272605;22;45469;-78
2023/02/09 09:17:30;;;;;;;;;43.50;39.50;;;;;4.37;50.68;102625.47;6271201;22;45482;-78
2023/02/09 09:19:57;;;;;;;;;47.00;37.50;;;;;4.40;50.32;102628.84;6271837;22;46845;-75
2023/02/09 09:25:44;;;;;;;;;54.50;39.00;;;;;4.45;50.39;102628.78;6271658;22;45585;-77
2023/02/09 09:28:09;;;;;;;;;46.50;39.75;;;;;4.48;50.93;102632.19;6271066;22;48218;-77
2023/02/09 09:30:36;;;;;;;;;41.00;36.00;;;;;4.45;50.57;102621.88;6271399;22;45530;-76
2023/02/09 09:33:02;;;;;;;;;38.50;34.00;;;;;4.59;50.45;102632.03;6271631;22;45475;-77
2023/02/09 09:35:30;;;;;;;;;39.25;38.00;;;;;4.63;50.33;102634.59;6271263;22;45983;-77
2023/02/09 09:37:57;;;;;;;;;42.00;36.00;;;;;4.69;50.50;102631.06;6270805;22;47221;-77
2023/02/09 09:40:26;;;;;;;;;49.25;40.50;;;;;4.74;50.34;102631.84;6243481;22;46945;-76
2023/02/09 09:42:55;;;;;;;;;48.75;37.75;;;;;4.79;50.47;102624.00;6271767;22;45613;-77
2023/02/09 09:45:24;;;;;;;;;40.75;36.50;;;;;4.79;50.13;102617.06;6272199;22;45574;-77
2023/02/09 09:47:50;;;;;;;;;39.00;34.50;;;;;4.87;50.19;102616.94;6273107;22;47685;-77
2023/02/09 09:56:29;;;;;;;;;45.00;39.00;;;;;5.01;50.48;102610.66;6272634;22;45476;-74
2023/02/09 09:58:56;;;;;;;;;48.00;41.00;;;;;5.04;50.07;102614.94;6270990;22;46347;-77
2023/02/09 10:01:22;;;;;;;;;48.50;42.50;;;;;5.12;50.14;102612.22;6271005;22;46083;-77
2023/02/09 10:03:48;;;;;;;;;42.25;31.00;;;;;5.16;50.14;102609.56;6271466;22;45791;-76
2023/02/09 10:06:19;;;;;;;;;46.50;38.50;;;;;5.20;49.77;102608.63;6270897;22;45463;-76
2023/02/09 10:08:59;;;;;;;;;49.75;42.25;;;;;5.29;50.27;102610.22;6271671;22;45547;-76
2023/02/09 10:11:34;;;;;;;;;48.50;41.50;;;;;5.34;49.61;102603.19;6243488;22;46205;-74
2023/02/09 10:13:59;;;;;;;;;42.50;36.50;;;;;5.38;49.67;102597.06;6244668;22;45829;-76
2023/02/09 10:16:29;;;;;;;;;41.25;34.00;;;;;5.38;50.02;102602.25;6272851;22;45400;-75
2023/02/09 10:18:57;;;;;;;;;39.50;32.75;;;;;5.47;49.93;102605.53;6273757;22;46329;-73
2023/02/09 10:21:26;;;;;;;;;39.75;37.25;;;;;5.52;49.55;102613.25;6245027;22;48309;-74
2023/02/09 10:24:00;;;;;;;;;41.25;34.50;;;;;5.57;49.60;102614.03;6272170;22;45768;-75
2023/02/09 10:26:35;;;;;;;;;42.25;34.25;;;;;5.63;49.46;102621.72;6271657;22;45871;-75
2023/02/09 10:29:24;;;;;;;;;39.00;33.50;;;;;5.62;49.57;102612.19;6243885;22;46590;-77
2023/02/09 10:32:18;;;;;;;;;37.00;33.25;;;;;5.75;49.77;102629.31;6244308;22;46054;-77
2023/02/09 10:34:52;;;;;;;;;40.00;36.50;;;;;5.82;49.20;102622.25;6146222;23;45769;-76
2023/02/09 10:37:34;;;;;;;;;49.50;38.75;;;;;5.79;49.12;102609.28;6147181;23;45493;-77
2023/02/09 10:40:11;;;;;;;;;42.25;38.00;;;;;5.90;48.56;102617.78;6121190;23;46583;-78
2023/02/09 10:42:39;;;;;;;;;41.00;36.25;;;;;5.91;49.00;102616.91;6121862;23;46151;-73
2023/02/09 10:45:13;;;;;;;;;42.50;39.25;;;;;5.78;48.64;102590.22;6147121;23;45473;-77
2023/02/09 10:47:38;;;;;;;;;41.00;36.00;;;;;5.97;48.19;102615.91;6148294;23;45568;-78
2023/02/09 10:50:12;;;;;;;;;41.00;34.50;;;;;5.98;48.50;102621.09;6148103;23;46369;-77
2023/02/09 10:52:43;;;;;;;;;44.50;40.00;;;;;6.00;48.40;102613.25;6147676;23;46066;-75
2023/02/09 10:55:19;;;;;;;;;35.00;33.00;;;;;5.94;48.60;102605.59;6147866;23;45798;-76
2023/02/09 10:57:44;;;;;;;;;43.50;36.50;;;;;6.07;48.31;102613.09;6147816;23;45764;-77
2023/02/09 11:00:15;;;;;;;;;44.75;38.75;;;;;6.11;48.45;102621.69;6147869;23;45476;-77
2023/02/09 11:02:48;;;;;;;;;49.75;37.50;;;;;6.16;48.40;102617.25;6125211;23;47093;-79
2023/02/09 11:05:19;;;;;;;;;43.75;41.25;;;;;6.20;47.98;102614.56;6150827;23;45595;-78
2023/02/09 11:07:50;;;;;;;;;48.00;40.50;;;;;6.21;48.09;102595.44;6150023;23;45771;-75
2023/02/09 11:10:16;;;;;;;;;52.75;45.25;;;;;6.30;48.39;102602.22;6148336;23;46470;-75
2023/02/09 11:12:42;;;;;;;;;56.50;44.00;;;;;6.35;48.12;102597.78;6263700;22;46045;-74
2023/02/09 11:15:12;;;;;;;;;57.00;44.50;;;;;6.40;48.09;102606.34;6271824;22;45846;-76
2023/02/09 11:17:46;;;;;;;;;53.75;43.75;;;;;6.36;47.73;102583.00;6273045;22;45678;-78
2023/02/09 11:20:34;;;;;;;;;61.50;44.25;;;;;6.49;47.79;102598.31;6271721;22;47800;-78
2023/02/09 11:23:37;;;;;;;;;55.00;43.25;;;;;6.54;47.92;102600.81;6271956;22;46043;-75
2023/02/09 11:26:36;;;;;;;;;55.50;43.75;;;;;6.60;47.97;102608.50;6272304;22;45830;-78
2023/02/09 11:29:40;;;;;;;;;38.50;32.75;;;;;6.64;47.81;102591.94;6244811;22;45587;-77
2023/02/09 11:32:34;;;;;;;;;46.75;41.00;;;;;6.71;47.53;102585.66;6272669;22;45634;-78
2023/02/09 11:35:17;;;;;;;;;15.75;11.00;;;;;6.77;47.29;102589.88;6272601;22;46453;-77
2023/02/09 11:44:00;;;;;;;;;42.00;39.75;;;;;6.89;46.82;102574.81;6272273;22;45590;-77
2023/02/09 11:46:30;;;;;;;;;44.50;35.75;;;;;6.93;46.66;102586.88;6272958;22;46256;-77
2023/02/09 11:49:15;;;;;;;;;40.00;37.00;;;;;7.00;46.41;102596.25;6244567;22;45487;-75
2023/02/09 11:51:44;;;;;;;;;50.25;41.25;;;;;6.94;46.00;102572.97;6274375;22;45588;-78
2023/02/09 11:54:17;;;;;;;;;46.25;40.75;;;;;7.08;45.91;102590.84;6220230;22;47685;-78
2023/02/09 11:56:51;;;;;;;;;51.50;41.00;;;;;7.04;45.89;102581.41;6272448;22;46053;-76
2023/02/09 11:59:27;;;;;;;;;46.25;39.25;;;;;7.15;45.88;102592.41;6271994;22;45467;-79
2023/02/09 12:02:29;;;;;;;;;43.00;34.50;;;;;7.18;45.99;102603.63;6271602;22;45555;-78
2023/02/09 12:04:59;;;;;;;;;47.50;41.75;;;;;7.23;45.93;102592.25;6271180;22;47377;-75
2023/02/09 12:07:59;;;;;;;;;45.75;40.50;;;;;7.26;45.23;102603.44;6244253;22;46084;-77
2023/02/09 12:10:43;;;;;;;;;52.25;40.75;;;;;7.31;45.42;102600.69;6272439;22;45796;-76
2023/02/09 12:13:17;;;;;;;;;47.00;40.50;;;;;7.34;45.38;102596.25;6272393;22;45687;-78
2023/02/09 12:15:49;;;;;;;;;48.75;42.50;;;;;7.30;45.23;102586.81;6272586;22;46215;-77
2023/02/09 12:18:21;;;;;;;;;47.00;40.00;;;;;7.40;45.02;102587.41;6274366;22;46123;-78
2023/02/09 12:20:55;;;;;;;;;40.00;34.75;;;;;7.45;45.37;102590.78;6273972;22;45742;-76
2023/02/09 12:23:26;;;;;;;;;47.25;42.00;;;;;7.47;45.04;102579.41;6271641;22;45487;-78
2023/02/09 12:26:00;;;;;;;;;49.50;42.00;;;;;7.43;45.19;102556.94;6271894;22;45706;-78
2023/02/09 12:28:32;;;;;;;;;49.75;42.00;;;;;7.56;45.20;102575.69;6271429;22;46977;-77
2023/02/09 12:30:59;;;;;;;;;21.00;14.00;;;;;7.62;45.16;102579.88;6272567;22;45541;-79
2023/02/09 12:33:24;;;;;;;;;51.75;43.25;;;;;7.66;45.22;102578.94;6271969;22;45462;-77
2023/02/09 12:36:06;;;;;;;;;45.67;40.33;;;;;7.69;44.82;102579.69;6272553;22;46191;-79
2023/02/09 12:38:54;;;;;;;;;47.75;39.75;;;;;7.75;45.18;102587.34;6274782;22;46124;-75
2023/02/09 12:41:30;;;;;;;;;50.25;40.00;;;;;7.79;45.05;102585.50;6274853;22;45517;-78
2023/02/09 12:44:15;;;;;;;;;49.25;40.75;;;;;7.84;45.02;102583.63;6273083;22;45621;-76
2023/02/09 12:46:44;;;;;;;;;38.25;34.25;;;;;7.88;44.78;102580.88;6222393;22;47762;-78
2023/02/09 12:49:12;;;;;;;;;57.75;43.25;;;;;7.93;44.88;102583.38;6271746;22;46097;-78
2023/02/09 12:54:57;;;;;;;;;48.50;38.75;;;;;7.98;44.53;102576.28;6207382;22;45810;-77
2023/02/09 12:57:24;;;;;;;;;47.75;41.25;;;;;8.02;44.60;102578.75;6181463;22;47487;-78
2023/02/09 12:59:49;;;;;;;;;51.50;39.50;;;;;8.07;43.88;102577.75;6206966;22;47106;-75
2023/02/09 13:02:24;;;;;;;;;46.50;40.25;;;;;8.10;44.30;102578.50;6207084;22;45950;-78
2023/02/09 13:05:10;;;;;;;;;49.00;40.75;;;;;8.13;43.31;102586.25;6207506;22;45768;-78